KMRY

Monterey Regional Airport

Airport
ICAO code
KMRY
Summary
ICAO Region
NAM
ICAO Territory
Location

Monterey, California,

Serving
Monterey, California
Coordinates
36° 35' 18" N , 121° 50' 57" W
KCC
Csb
Airport LOS
Parallel Runway Operation
Airport WX
Fog
Metar
Observation
KMRY 171313Z 24004KT 10SM SCT005 14/12 A2990 RMK AO2 T01390117
Station
Monterey, Monterey Peninsula Airport
Date/Time
2022-08-17 13:13:00
Wind direction
240°
Wind speed
04 kts
Lowest cloud amount
scattered clouds
Temperature
13.9°C
Dew point
11.7°C
Humidity
86%
Weather condition
n/a

Description

Monterey Regional Airport is a regional airport located 5 km southeast of the central business district of Monterey, a city in Monterey County, California.

Climatology

Dry-summer subtropical ”Mediterranean" climate (Köppen climate classification Csb) - characterized by warm, dry summers and mild winters.

Runways

Designator Length Width Surface Rops
10L/28R 1071 18 ASP Yes/Yes
10R/28L 2321 46 ASP Yes/Yes

Airport map

Aerial View

SKYbrary Partners:

Safety knowledge contributed by: